METAR Data
IDs: Format: Raw Decoded Include TAF

Data at: 0515 UTC 24 Sep 2018

KLVM 240453Z AUTO 25011KT 10SM FEW035 BKN049 BKN065 09/07 A2999 RMK AO2 SLP142 T00890067
KLVM 240353Z AUTO 23009KT 10SM FEW040 FEW060 BKN075 08/06 A2998 RMK AO2 LTG DSNT W SLP140 T00830061
KLVM 240253Z AUTO 29008KT 10SM BKN060 BKN080 OVC100 09/07 A2996 RMK AO2 RAE13 PRESFR SLP137 P0000 60008 T00940072 58007
KLVM 240153Z AUTO 17008KT 10SM -RA OVC055 09/08 A2998 RMK AO2 LTG DSNT S SLP150 P0002 T00890078
KLVM 240053Z AUTO 18007KT 10SM -RA SCT047 BKN055 OVC070 08/07 A3000 RMK AO2 SLP157 P0006 T00830072
KLVM 240017Z AUTO 20008KT 6SM -RA BR SCT039 OVC048 08/08 A2999 RMK AO2 P0004 T00830083
KLVM 240006Z AUTO 29012G18KT 2 1/2SM RA BR BKN041 OVC048 09/07 A3000 RMK AO2 VIS 1 1/2V5 P0003 T00890067
KLVM 232353Z AUTO 33008KT 4SM VCTS RA OVC048 09/06 A2999 RMK AO2 RAB20 SLP153 P0003 60003 T00890061 10178 20089 53016
KLVM 232349Z AUTO 33006KT 6SM VCTS -RA BKN048 OVC055 09/06 A2999 RMK AO2 RAB20 P0002
KLVM 232253Z AUTO 01003KT 10SM SCT090 15/06 A2993 RMK AO2 SLP120 T01500056
KLVM 232153Z AUTO 25003KT 10SM FEW030 SCT065 BKN120 14/07 A2994 RMK AO2 RAE30 SLP127 P0000 T01390067
KLVM 232053Z AUTO 32010KT 10SM -RA OVC070 14/06 A2996 RMK AO2 RAB53 SLP126 P0000 60000 T01440061 56002
KLVM 231953Z AUTO 33012KT 10SM BKN100 15/06 A2997 RMK AO2 SLP127 T01500061
KLVM 231853Z AUTO 31007KT 10SM SCT100 17/04 A2995 RMK AO2 SLP114 T01720039
KLVM 231753Z AUTO 29007KT 10SM CLR 16/04 A2997 RMK AO2 SLP119 T01560044 10156 20050 58003
KLVM 231653Z AUTO 29008KT 10SM CLR 13/04 A2999 RMK AO2 SLP130 T01330039
KLVM 231553Z AUTO 31003KT 10SM CLR 12/03 A2996 RMK AO2 SLP122 T01170033
KLVM 231453Z AUTO 32006KT 10SM CLR 09/03 A2998 RMK AO2 SLP127 T00890028 50001
KLVM 231353Z AUTO 32006KT 10SM CLR 07/03 A2998 RMK AO2 SLP129 T00670028
KLVM 231253Z AUTO 31006KT 10SM CLR 06/02 A2997 RMK AO2 SLP123 T00560022
KLVM 231153Z AUTO 27004KT 10SM CLR 06/02 A2997 RMK AO2 SLP122 T00610017 10139 20050 50007
KLVM 231053Z AUTO 26004KT 10SM CLR 06/02 A2998 RMK AO2 SLP120 T00560017
KLVM 230953Z AUTO 26003KT 10SM CLR 05/01 A2996 RMK AO2 SLP115 T00500011
KLVM 230853Z AUTO 11006KT 10SM CLR 10/02 A2995 RMK AO2 SLP105 T01000022 58006
KLVM 230753Z AUTO 10006KT 10SM CLR 11/02 A2996 RMK AO2 SLP108 T01060017
KLVM 230653Z AUTO VRB03KT 10SM CLR 12/02 A2997 RMK AO2 SLP109 T01220017 402780061
KLVM 230553Z AUTO 12009KT 10SM CLR 14/01 A2997 RMK AO2 SLP106 T01390011 10239 20117 51025
KLVM 230453Z AUTO 12007KT 10SM CLR 14/02 A2996 RMK AO2 SLP107 T01390017
KLVM 230353Z AUTO 31010KT 10SM CLR 16/01 A2993 RMK AO2 SLP093 T01560006
KLVM 230253Z AUTO 10008KT 10SM CLR 19/M04 A2989 RMK AO2 SLP080 T01891044 53004
KLVM 230153Z AUTO 00000KT 10SM CLR 21/M07 A2988 RMK AO2 SLP078 T02061067
KLVM 230053Z AUTO 24010KT 10SM CLR 24/M07 A2988 RMK AO2 SLP074 T02391072
KLVM 222353Z AUTO 26004KT 10SM CLR 24/M03 A2987 RMK AO2 SLP080 T02391028 10278 20239 55007
KLVM 222253Z AUTO 21010G21KT 180V240 10SM CLR 26/M04 A2987 RMK AO2 SLP081 T02611044
KLVM 222153Z AUTO 31010KT 10SM CLR 27/M04 A2988 RMK AO2 SLP080 T02671044
KLVM 222053Z AUTO 28008KT 10SM CLR 26/M03 A2990 RMK AO2 SLP087 T02561033 58015
KLVM 221953Z AUTO 25015G24KT 10SM CLR 26/M06 A2992 RMK AO2 SLP093 T02611056
KLVM 221853Z AUTO 22016G24KT 10SM CLR 26/M06 A2994 RMK AO2 PK WND 22029/1757 SLP100 T02611061
KLVM 221753Z AUTO 21021G29KT 10SM CLR 26/M05 A2995 RMK AO2 PK WND 21031/1711 SLP103 T02561050 10256 20106 56006